^^
Saratoga-Weather Station Historical Data
Daily Summary for July 14, 2021 Units:  Both    English   Metric
Daily Weekly Monthly Yearly Custom
  High: Low: Average:
Temperature: 64 °F /  17.8 °C 59.4 °F /  15.2 °C 60.8 °F /  16 °C
Dew Point: 62.2 °F /  16.8 °C 57.6 °F /  14.2 °C 59.2 °F /  15.1 °C
Humidity: 96% 93% 95%
Wind Speed: 12.1mph /  19.5km/h - 2mph /  3.2km/h
Wind Gust: 12mph /  19.3km/h - -
Wind- - SW
Pressure: 29.8 in /  1010.5 hPa 29.8 in /  1008.8 hPa -
Precipitation: 1.91 in /  48.5 mm    
Historical Graphs
 
 
Tabular Data for July 14, 2021
Time Temperature Dew Point Pressure Wind Wind Speed Wind Gust Humidity Rainfall Rate (Hourly) solar
00:04 59.7 °F /  15.4 °C 58.3 °F /  14.6 °C 29.8in /  1009.1hPa WSW 0.9mph /  1.4km/h 4mph /  6.4km/h 95% 0in /  0.0mm 0 W/m2
00:09 59.7 °F /  15.4 °C 58.3 °F /  14.6 °C 29.8in /  1009.1hPa Calm   1mph /  1.6km/h 95% 0in /  0.0mm 0 W/m2
00:14 59.7 °F /  15.4 °C 58.3 °F /  14.6 °C 29.8in /  1009.1hPa Calm   1mph /  1.6km/h 95% 0in /  0.0mm 0 W/m2
00:19 59.7 °F /  15.4 °C 58.3 °F /  14.6 °C 29.8in /  1009.5hPa WSW 0.9mph /  1.4km/h 4mph /  6.4km/h 95% 0in /  0.0mm 0 W/m2
00:24 59.7 °F /  15.4 °C 58.3 °F /  14.6 °C 29.8in /  1009.5hPa Calm   2mph /  3.2km/h 95% 0in /  0.0mm 0 W/m2
00:29 59.7 °F /  15.4 °C 58.3 °F /  14.6 °C 29.8in /  1009.5hPa Calm   1mph /  1.6km/h 95% 0in /  0.0mm 0 W/m2
00:34 59.7 °F /  15.4 °C 58.3 °F /  14.6 °C 29.8in /  1009.5hPa NNW 2mph /  3.2km/h 2mph /  3.2km/h 95% 0in /  0.0mm 0 W/m2
00:39 59.9 °F /  15.5 °C 58.5 °F /  14.7 °C 29.8in /  1009.5hPa Calm   1mph /  1.6km/h 95% 0in /  0.0mm 0 W/m2
00:44 59.9 °F /  15.5 °C 58.5 °F /  14.7 °C 29.8in /  1009.1hPa Calm   1mph /  1.6km/h 95% 0in /  0.0mm 0 W/m2
00:49 59.7 °F /  15.4 °C 58.3 °F /  14.6 °C 29.8in /  1009.5hPa West 0.9mph /  1.4km/h 4mph /  6.4km/h 95% 0in /  0.0mm 0 W/m2
00:54 59.7 °F /  15.4 °C 58.3 °F /  14.6 °C 29.8in /  1009.1hPa WNW 0.9mph /  1.4km/h 2mph /  3.2km/h 95% 0in /  0.0mm 0 W/m2
00:59 59.5 °F /  15.3 °C 57.7 °F /  14.3 °C 29.8in /  1009.1hPa West 0.9mph /  1.4km/h 3mph /  4.8km/h 94% 0in /  0.0mm 0 W/m2
01:04 59.5 °F /  15.3 °C 58.1 °F /  14.5 °C 29.8in /  1009.1hPa West 2mph /  3.2km/h 3mph /  4.8km/h 95% 0in /  0.0mm 0 W/m2
01:09 59.5 °F /  15.3 °C 58.1 °F /  14.5 °C 29.8in /  1009.1hPa Calm   3mph /  4.8km/h 95% 0in /  0.0mm 0 W/m2
01:14 59.4 °F /  15.2 °C 57.6 °F /  14.2 °C 29.8in /  1008.8hPa West 2mph /  3.2km/h 2mph /  3.2km/h 94% 0in /  0.0mm 0 W/m2
01:19 59.4 °F /  15.2 °C 57.9 °F /  14.4 °C 29.8in /  1009.1hPa West 2mph /  3.2km/h 8mph /  12.9km/h 95% 0in /  0.0mm 0 W/m2
01:24 59.5 °F /  15.3 °C 58.1 °F /  14.5 °C 29.8in /  1009.1hPa WSW 0.9mph /  1.4km/h 2mph /  3.2km/h 95% 0in /  0.0mm 0 W/m2
01:29 59.5 °F /  15.3 °C 58.1 °F /  14.5 °C 29.8in /  1009.1hPa Calm   8mph /  12.9km/h 95% 0in /  0.0mm 0 W/m2
01:34 59.5 °F /  15.3 °C 58.1 °F /  14.5 °C 29.8in /  1008.8hPa WNW 2mph /  3.2km/h 2mph /  3.2km/h 95% 0in /  0.0mm 0 W/m2
01:39 59.5 °F /  15.3 °C 58.1 °F /  14.5 °C 29.8in /  1009.1hPa Calm   2mph /  3.2km/h 95% 0in /  0.0mm 0 W/m2
01:44 59.7 °F /  15.4 °C 58.3 °F /  14.6 °C 29.8in /  1009.1hPa ESE 2mph /  3.2km/h 4mph /  6.4km/h 95% 0in /  0.0mm 0 W/m2
01:49 59.7 °F /  15.4 °C 58.3 °F /  14.6 °C 29.8in /  1009.5hPa South 0.9mph /  1.4km/h 2mph /  3.2km/h 95% 0in /  0.0mm 0 W/m2
01:54 59.7 °F /  15.4 °C 58.3 °F /  14.6 °C 29.8in /  1009.5hPa East 0.9mph /  1.4km/h 2mph /  3.2km/h 95% 0in /  0.0mm 0 W/m2
01:59 59.7 °F /  15.4 °C 58.3 °F /  14.6 °C 29.8in /  1009.5hPa SE 2mph /  3.2km/h 2mph /  3.2km/h 95% 0in /  0.0mm 0 W/m2
02:04 59.7 °F /  15.4 °C 58.3 °F /  14.6 °C 29.8in /  1009.5hPa Calm   3mph /  4.8km/h 95% 0in /  0.0mm 0 W/m2
02:09 59.7 °F /  15.4 °C 58.3 °F /  14.6 °C 29.8in /  1009.5hPa NNE 0.9mph /  1.4km/h 2mph /  3.2km/h 95% 0in /  0.0mm 0 W/m2
02:14 59.7 °F /  15.4 °C 58.3 °F /  14.6 °C 29.8in /  1009.5hPa Calm   2mph /  3.2km/h 95% 0in /  0.0mm 0 W/m2
02:19 59.9 °F /  15.5 °C 58.5 °F /  14.7 °C 29.8in /  1009.5hPa ENE 2mph /  3.2km/h 2mph /  3.2km/h 95% 0in /  0.0mm 0 W/m2
02:24 59.9 °F /  15.5 °C 58.5 °F /  14.7 °C 29.8in /  1009.8hPa NE 2.9mph /  4.7km/h 4mph /  6.4km/h 95% 0in /  0.0mm 0 W/m2
02:29 59.9 °F /  15.5 °C 58.5 °F /  14.7 °C 29.8in /  1009.8hPa NE 2.9mph /  4.7km/h 4mph /  6.4km/h 95% 0in /  0.0mm 0 W/m2
02:34 60.1 °F /  15.6 °C 58.6 °F /  14.8 °C 29.8in /  1009.8hPa NE 2mph /  3.2km/h 3mph /  4.8km/h 95% 0in /  0.0mm 0 W/m2
02:39 60.1 °F /  15.6 °C 58.6 °F /  14.8 °C 29.8in /  1009.8hPa NE 2mph /  3.2km/h 2mph /  3.2km/h 95% 0in /  0.0mm 0 W/m2
02:44 60.1 °F /  15.6 °C 58.6 °F /  14.8 °C 29.8in /  1009.8hPa NE 0.9mph /  1.4km/h 4mph /  6.4km/h 95% 0in /  0.0mm 0 W/m2
02:49 60.1 °F /  15.6 °C 58.6 °F /  14.8 °C 29.8in /  1009.5hPa Calm   1mph /  1.6km/h 95% 0in /  0.0mm 0 W/m2
02:55 60.1 °F /  15.6 °C 58.6 °F /  14.8 °C 29.8in /  1009.5hPa Calm   1mph /  1.6km/h 95% 0in /  0.0mm 0 W/m2
03:00 60.1 °F /  15.6 °C 58.6 °F /  14.8 °C 29.8in /  1009.5hPa Calm   2mph /  3.2km/h 95% 0in /  0.0mm 0 W/m2
03:05 60.1 °F /  15.6 °C 58.6 °F /  14.8 °C 29.8in /  1009.1hPa North 2mph /  3.2km/h 2mph /  3.2km/h 95% 0in /  0.0mm 0 W/m2
03:10 60.1 °F /  15.6 °C 58.6 °F /  14.8 °C 29.8in /  1009.1hPa WNW 0.9mph /  1.4km/h 3mph /  4.8km/h 95% 0in /  0.0mm 0 W/m2
03:15 59.9 °F /  15.5 °C 58.5 °F /  14.7 °C 29.8in /  1009.1hPa Calm   1mph /  1.6km/h 95% 0in /  0.0mm 0 W/m2
03:20 59.9 °F /  15.5 °C 58.5 °F /  14.7 °C 29.8in /  1008.8hPa Calm   1mph /  1.6km/h 95% 0in /  0.0mm 0 W/m2
03:25 59.9 °F /  15.5 °C 58.5 °F /  14.7 °C 29.8in /  1008.8hPa Calm   2mph /  3.2km/h 95% 0in /  0.0mm 0 W/m2
03:30 59.9 °F /  15.5 °C 58.5 °F /  14.7 °C 29.8in /  1009.1hPa NNE 0.9mph /  1.4km/h 2mph /  3.2km/h 95% 0in /  0.0mm 0 W/m2
03:35 60.1 °F /  15.6 °C 58.6 °F /  14.8 °C 29.8in /  1008.8hPa Calm     95% 0in /  0.0mm 0 W/m2
03:40 59.9 °F /  15.5 °C 58.5 °F /  14.7 °C 29.8in /  1008.8hPa NW 0.9mph /  1.4km/h 2mph /  3.2km/h 95% 0in /  0.0mm 0 W/m2
03:45 59.9 °F /  15.5 °C 58.5 °F /  14.7 °C 29.8in /  1008.8hPa Calm     95% 0in /  0.0mm 0 W/m2
03:50 59.9 °F /  15.5 °C 58.5 °F /  14.7 °C 29.8in /  1008.8hPa ENE 0.9mph /  1.4km/h 3mph /  4.8km/h 95% 0in /  0.0mm 0 W/m2
03:55 59.9 °F /  15.5 °C 58.5 °F /  14.7 °C 29.8in /  1008.8hPa Calm   1mph /  1.6km/h 95% 0in /  0.0mm 0 W/m2
04:00 59.9 °F /  15.5 °C 58.5 °F /  14.7 °C 29.8in /  1008.8hPa NE 0.9mph /  1.4km/h 2mph /  3.2km/h 95% 0in /  0.0mm 0 W/m2
04:05 59.9 °F /  15.5 °C 58.5 °F /  14.7 °C 29.8in /  1008.8hPa Calm     95% 0in /  0.0mm 0 W/m2
04:10 59.9 °F /  15.5 °C 58.5 °F /  14.7 °C 29.8in /  1008.8hPa Calm   1mph /  1.6km/h 95% 0in /  0.0mm 0 W/m2
04:15 59.9 °F /  15.5 °C 58.5 °F /  14.7 °C 29.8in /  1008.8hPa Calm     95% 0in /  0.0mm 0 W/m2
04:20 59.9 °F /  15.5 °C 58.5 °F /  14.7 °C 29.8in /  1008.8hPa NE 0.9mph /  1.4km/h 2mph /  3.2km/h 95% 0in /  0.0mm 0 W/m2
04:25 59.9 °F /  15.5 °C 58.5 °F /  14.7 °C 29.8in /  1008.8hPa ENE 2mph /  3.2km/h 2mph /  3.2km/h 95% 0in /  0.0mm 0 W/m2
04:30 59.9 °F /  15.5 °C 58.5 °F /  14.7 °C 29.8in /  1009.1hPa East 0.9mph /  1.4km/h 1mph /  1.6km/h 95% 0in /  0.0mm 0 W/m2
04:35 60.1 °F /  15.6 °C 58.6 °F /  14.8 °C 29.8in /  1009.1hPa ENE 0.9mph /  1.4km/h 3mph /  4.8km/h 95% 0in /  0.0mm 0 W/m2
04:40 60.1 °F /  15.6 °C 58.6 °F /  14.8 °C 29.8in /  1009.1hPa NE 2mph /  3.2km/h 4mph /  6.4km/h 95% 0in /  0.0mm 0 W/m2
04:45 60.1 °F /  15.6 °C 58.6 °F /  14.8 °C 29.8in /  1009.1hPa ESE 0.9mph /  1.4km/h 2mph /  3.2km/h 95% 0in /  0.0mm 0 W/m2
04:50 60.1 °F /  15.6 °C 58.3 °F /  14.6 °C 29.8in /  1009.1hPa Calm   4mph /  6.4km/h 94% 0in /  0.0mm 0 W/m2
04:55 60.1 °F /  15.6 °C 58.6 °F /  14.8 °C 29.8in /  1009.1hPa East 0.9mph /  1.4km/h 3mph /  4.8km/h 95% 0in /  0.0mm 0 W/m2
05:00 60.1 °F /  15.6 °C 58.3 °F /  14.6 °C 29.8in /  1009.1hPa East 2mph /  3.2km/h 4mph /  6.4km/h 94% 0in /  0.0mm 0 W/m2
05:05 60.1 °F /  15.6 °C 58.3 °F /  14.6 °C 29.8in /  1009.1hPa Calm   2mph /  3.2km/h 94% 0in /  0.0mm 0 W/m2
05:10 60.1 °F /  15.6 °C 58.6 °F /  14.8 °C 29.8in /  1009.1hPa ENE 0.9mph /  1.4km/h 4mph /  6.4km/h 95% 0in /  0.0mm 0 W/m2
05:15 60.1 °F /  15.6 °C 58.3 °F /  14.6 °C 29.8in /  1009.1hPa Calm   2mph /  3.2km/h 94% 0in /  0.0mm 0 W/m2
05:20 60.1 °F /  15.6 °C 58.3 °F /  14.6 °C 29.8in /  1009.1hPa Calm   2mph /  3.2km/h 94% 0in /  0.0mm 0 W/m2
05:25 60.1 °F /  15.6 °C 58.3 °F /  14.6 °C 29.8in /  1009.1hPa Calm     94% 0in /  0.0mm 0 W/m2
05:30 60.1 °F /  15.6 °C 58.3 °F /  14.6 °C 29.8in /  1009.1hPa Calm   2mph /  3.2km/h 94% 0in /  0.0mm 0 W/m2
05:35 60.1 °F /  15.6 °C 58.3 °F /  14.6 °C 29.8in /  1008.8hPa Calm   2mph /  3.2km/h 94% 0in /  0.0mm 0 W/m2
05:40 60.1 °F /  15.6 °C 58.3 °F /  14.6 °C 29.8in /  1008.8hPa NE 2mph /  3.2km/h 2mph /  3.2km/h 94% 0in /  0.0mm 0 W/m2
05:45 59.9 °F /  15.5 °C 58.1 °F /  14.5 °C 29.8in /  1008.8hPa Calm   3mph /  4.8km/h 94% 0in /  0.0mm 0 W/m2
05:50 59.7 °F /  15.4 °C 57.9 °F /  14.4 °C 29.8in /  1008.8hPa Calm     94% 0in /  0.0mm 5 W/m2
05:55 59.7 °F /  15.4 °C 57.9 °F /  14.4 °C 29.8in /  1008.8hPa NE 0.9mph /  1.4km/h 3mph /  4.8km/h 94% 0in /  0.0mm 5 W/m2
06:00 59.7 °F /  15.4 °C 58.3 °F /  14.6 °C 29.8in /  1008.8hPa Calm   1mph /  1.6km/h 95% 0in /  0.0mm 7 W/m2
06:05 59.7 °F /  15.4 °C 58.3 °F /  14.6 °C 29.8in /  1008.8hPa North 2mph /  3.2km/h 3mph /  4.8km/h 95% 0in /  0.0mm 7 W/m2
06:10 59.9 °F /  15.5 °C 58.5 °F /  14.7 °C 29.8in /  1008.8hPa Calm     95% 0in /  0.0mm 9 W/m2
06:16 59.9 °F /  15.5 °C 58.5 °F /  14.7 °C 29.8in /  1008.8hPa North 0.9mph /  1.4km/h 4mph /  6.4km/h 95% 0in /  0.0mm 9 W/m2
06:21 59.9 °F /  15.5 °C 58.5 °F /  14.7 °C 29.8in /  1009.1hPa NNE 0.9mph /  1.4km/h 2mph /  3.2km/h 95% 0in /  0.0mm 7 W/m2
06:26 59.9 °F /  15.5 °C 58.5 °F /  14.7 °C 29.8in /  1008.8hPa Calm   4mph /  6.4km/h 95% 0in /  0.0mm 7 W/m2
06:31 60.1 °F /  15.6 °C 58.6 °F /  14.8 °C 29.8in /  1009.1hPa Calm     95% 0in /  0.0mm 7 W/m2
06:36 60.1 °F /  15.6 °C 58.6 °F /  14.8 °C 29.8in /  1009.1hPa NNE 0.9mph /  1.4km/h 2mph /  3.2km/h 95% 0in /  0.0mm 7 W/m2
06:41 60.1 °F /  15.6 °C 58.6 °F /  14.8 °C 29.8in /  1009.1hPa ENE 2mph /  3.2km/h 2mph /  3.2km/h 95% 0in /  0.0mm 11 W/m2
06:46 60.1 °F /  15.6 °C 58.3 °F /  14.6 °C 29.8in /  1009.1hPa Calm   2mph /  3.2km/h 94% 0in /  0.0mm 9 W/m2
06:51 60.1 °F /  15.6 °C 58.3 °F /  14.6 °C 29.8in /  1009.1hPa NE 2mph /  3.2km/h 2mph /  3.2km/h 94% 0in /  0.0mm 9 W/m2
06:56 60.1 °F /  15.6 °C 58.6 °F /  14.8 °C 29.8in /  1009.1hPa East 2mph /  3.2km/h 5mph /  8km/h 95% 0in /  0.0mm 7 W/m2
07:01 60.1 °F /  15.6 °C 58.3 °F /  14.6 °C 29.8in /  1009.1hPa North 2mph /  3.2km/h 3mph /  4.8km/h 94% 0in /  0.0mm 7 W/m2
07:06 60.3 °F /  15.7 °C 58.5 °F /  14.7 °C 29.8in /  1009.1hPa NNE 2mph /  3.2km/h 3mph /  4.8km/h 94% 0in /  0.0mm 7 W/m2
07:11 60.3 °F /  15.7 °C 58.5 °F /  14.7 °C 29.8in /  1009.1hPa Calm     94% 0in /  0.0mm 11 W/m2
07:16 60.3 °F /  15.7 °C 58.5 °F /  14.7 °C 29.8in /  1009.1hPa Calm   3mph /  4.8km/h 94% 0in /  0.0mm 14 W/m2
07:21 60.3 °F /  15.7 °C 58.5 °F /  14.7 °C 29.8in /  1009.1hPa NE 0.9mph /  1.4km/h 2mph /  3.2km/h 94% 0in /  0.0mm 16 W/m2
07:26 60.3 °F /  15.7 °C 58.5 °F /  14.7 °C 29.8in /  1009.1hPa Calm     94% 0in /  0.0mm 16 W/m2
07:31 60.3 °F /  15.7 °C 58.5 °F /  14.7 °C 29.8in /  1009.1hPa Calm     94% 0.01in /  0.2mm 21 W/m2
07:36 60.3 °F /  15.7 °C 58.5 °F /  14.7 °C 29.8in /  1009.1hPa North 3mph /  4.8km/h 3mph /  4.8km/h 94% 0.02in /  0.5mm 25 W/m2
07:41 60.3 °F /  15.7 °C 58.5 °F /  14.7 °C 29.8in /  1009.1hPa Calm   1mph /  1.6km/h 94% 0.02in /  0.5mm 32 W/m2
07:46 60.3 °F /  15.7 °C 58.5 °F /  14.7 °C 29.8in /  1009.1hPa NE 0.9mph /  1.4km/h 2mph /  3.2km/h 94% 0.02in /  0.5mm 39 W/m2
07:51 60.3 °F /  15.7 °C 58.8 °F /  14.9 °C 29.8in /  1009.1hPa NNE 0.9mph /  1.4km/h 4mph /  6.4km/h 95% 0.02in /  0.5mm 28 W/m2
07:56 60.3 °F /  15.7 °C 58.8 °F /  14.9 °C 29.8in /  1009.1hPa Calm   2mph /  3.2km/h 95% 0.02in /  0.5mm 26 W/m2
08:01 60.3 °F /  15.7 °C 58.8 °F /  14.9 °C 29.8in /  1009.1hPa Calm   4mph /  6.4km/h 95% 0.02in /  0.5mm 28 W/m2
08:06 60.3 °F /  15.7 °C 58.8 °F /  14.9 °C 29.8in /  1009.1hPa East 0.9mph /  1.4km/h 2mph /  3.2km/h 95% 0.02in /  0.5mm 49 W/m2
08:11 60.3 °F /  15.7 °C 58.8 °F /  14.9 °C 29.8in /  1009.1hPa Calm   3mph /  4.8km/h 95% 0.02in /  0.5mm 56 W/m2
08:16 60.3 °F /  15.7 °C 58.8 °F /  14.9 °C 29.8in /  1009.1hPa Calm   1mph /  1.6km/h 95% 0.02in /  0.5mm 60 W/m2
08:21 60.3 °F /  15.7 °C 58.8 °F /  14.9 °C 29.8in /  1009.1hPa Calm   2mph /  3.2km/h 95% 0.03in /  0.8mm 70 W/m2
08:26 60.3 °F /  15.7 °C 58.8 °F /  14.9 °C 29.8in /  1009.1hPa Calm   2mph /  3.2km/h 95% 0.03in /  0.8mm 63 W/m2
08:31 60.4 °F /  15.8 °C 59 °F /  15 °C 29.8in /  1009.1hPa North 0.9mph /  1.4km/h 2mph /  3.2km/h 95% 0.02in /  0.5mm 83 W/m2
08:36 60.4 °F /  15.8 °C 59 °F /  15 °C 29.8in /  1009.1hPa Calm     95% 0.02in /  0.5mm 144 W/m2
08:41 60.6 °F /  15.9 °C 59.2 °F /  15.1 °C 29.8in /  1009.1hPa Calm     95% 0.02in /  0.5mm 149 W/m2
08:46 61 °F /  16.1 °C 59.5 °F /  15.3 °C 29.8in /  1009.1hPa Calm   1mph /  1.6km/h 95% 0.02in /  0.5mm 120 W/m2
08:51 61 °F /  16.1 °C 59.5 °F /  15.3 °C 29.8in /  1009.1hPa NE 0.9mph /  1.4km/h 2mph /  3.2km/h 95% 0.02in /  0.5mm 114 W/m2
08:56 61 °F /  16.1 °C 59.5 °F /  15.3 °C 29.8in /  1009.1hPa Calm   2mph /  3.2km/h 95% 0.01in /  0.2mm 105 W/m2
09:01 61 °F /  16.1 °C 59.5 °F /  15.3 °C 29.8in /  1009.1hPa Calm   2mph /  3.2km/h 95% 0.01in /  0.2mm 107 W/m2
09:06 61 °F /  16.1 °C 59.5 °F /  15.3 °C 29.8in /  1009.1hPa NNE 0.9mph /  1.4km/h 2mph /  3.2km/h 95% 0.01in /  0.2mm 114 W/m2
09:11 61.2 °F /  16.2 °C 59.7 °F /  15.4 °C 29.8in /  1009.1hPa Calm   2mph /  3.2km/h 95% 0.01in /  0.2mm 116 W/m2
09:16 61.2 °F /  16.2 °C 59.7 °F /  15.4 °C 29.8in /  1009.1hPa NW 2mph /  3.2km/h 4mph /  6.4km/h 95% 0.01in /  0.2mm 121 W/m2
09:21 61.2 °F /  16.2 °C 59.7 °F /  15.4 °C 29.8in /  1009.1hPa Calm   1mph /  1.6km/h 95% 0in /  0.0mm 98 W/m2
09:26 61.3 °F /  16.3 °C 59.9 °F /  15.5 °C 29.8in /  1009.1hPa Calm   2mph /  3.2km/h 95% 0in /  0.0mm 95 W/m2
09:31 61.3 °F /  16.3 °C 59.5 °F /  15.3 °C 29.8in /  1009.1hPa Calm   2mph /  3.2km/h 94% 0in /  0.0mm 109 W/m2
09:36 61.5 °F /  16.4 °C 60.1 °F /  15.6 °C 29.8in /  1009.1hPa Calm   1mph /  1.6km/h 95% 0in /  0.0mm 97 W/m2
09:41 61.5 °F /  16.4 °C 59.7 °F /  15.4 °C 29.8in /  1009.1hPa NW 0.9mph /  1.4km/h 1mph /  1.6km/h 94% 0in /  0.0mm 113 W/m2
09:46 61.5 °F /  16.4 °C 59.7 °F /  15.4 °C 29.8in /  1009.1hPa SSE 2mph /  3.2km/h 3mph /  4.8km/h 94% 0in /  0.0mm 88 W/m2
09:51 61.5 °F /  16.4 °C 59.7 °F /  15.4 °C 29.8in /  1009.1hPa WNW 2mph /  3.2km/h 3mph /  4.8km/h 94% 0in /  0.0mm 91 W/m2
09:56 61.3 °F /  16.3 °C 59.5 °F /  15.3 °C 29.8in /  1009.1hPa Calm   2mph /  3.2km/h 94% 0in /  0.0mm 113 W/m2
10:01 61.5 °F /  16.4 °C 59.7 °F /  15.4 °C 29.8in /  1009.1hPa WNW 4mph /  6.4km/h 5mph /  8km/h 94% 0in /  0.0mm 86 W/m2
10:06 61.5 °F /  16.4 °C 59.7 °F /  15.4 °C 29.8in /  1009.1hPa NW 2.9mph /  4.7km/h 4mph /  6.4km/h 94% 0in /  0.0mm 97 W/m2
10:11 61.3 °F /  16.3 °C 59.5 °F /  15.3 °C 29.8in /  1009.1hPa WNW 2mph /  3.2km/h 3mph /  4.8km/h 94% 0in /  0.0mm 105 W/m2
10:16 61.5 °F /  16.4 °C 60.1 °F /  15.6 °C 29.8in /  1009.5hPa NW 2.9mph /  4.7km/h 3mph /  4.8km/h 95% 0in /  0.0mm 118 W/m2
10:21 61.5 °F /  16.4 °C 59.7 °F /  15.4 °C 29.8in /  1009.5hPa NW 2.9mph /  4.7km/h 4mph /  6.4km/h 94% 0in /  0.0mm 111 W/m2
10:26 61.5 °F /  16.4 °C 60.1 °F /  15.6 °C 29.8in /  1009.5hPa Calm   3mph /  4.8km/h 95% 0in /  0.0mm 98 W/m2
10:31 61.5 °F /  16.4 °C 60.1 °F /  15.6 °C 29.8in /  1009.5hPa NW 2mph /  3.2km/h 4mph /  6.4km/h 95% 0in /  0.0mm 114 W/m2
10:36 61.5 °F /  16.4 °C 60.1 °F /  15.6 °C 29.8in /  1009.5hPa Calm   2mph /  3.2km/h 95% 0in /  0.0mm 114 W/m2
10:41 61.7 °F /  16.5 °C 60.3 °F /  15.7 °C 29.8in /  1009.5hPa Calm   3mph /  4.8km/h 95% 0in /  0.0mm 111 W/m2
10:46 61.7 °F /  16.5 °C 60.3 °F /  15.7 °C 29.8in /  1009.5hPa Calm     95% 0in /  0.0mm 95 W/m2
10:51 61.9 °F /  16.6 °C 60.4 °F /  15.8 °C 29.8in /  1009.5hPa Calm     95% 0in /  0.0mm 77 W/m2
10:56 62.1 °F /  16.7 °C 60.3 °F /  15.7 °C 29.8in /  1009.5hPa WNW 0.9mph /  1.4km/h 2mph /  3.2km/h 94% 0in /  0.0mm 81 W/m2
11:01 62.1 °F /  16.7 °C 60.3 °F /  15.7 °C 29.8in /  1009.5hPa Calm   1mph /  1.6km/h 94% 0in /  0.0mm 116 W/m2
11:06 62.1 °F /  16.7 °C 60.6 °F /  15.9 °C 29.8in /  1009.5hPa West 0.9mph /  1.4km/h 2mph /  3.2km/h 95% 0in /  0.0mm 111 W/m2
11:11 62.2 °F /  16.8 °C 60.8 °F /  16 °C 29.8in /  1009.5hPa NW 0.9mph /  1.4km/h 4mph /  6.4km/h 95% 0in /  0.0mm 113 W/m2
11:16 62.2 °F /  16.8 °C 60.8 °F /  16 °C 29.8in /  1009.5hPa WNW 0.9mph /  1.4km/h 3mph /  4.8km/h 95% 0in /  0.0mm 120 W/m2
11:21 62.2 °F /  16.8 °C 60.8 °F /  16 °C 29.8in /  1009.5hPa Calm   1mph /  1.6km/h 95% 0in /  0.0mm 111 W/m2
11:26 62.4 °F /  16.9 °C 61 °F /  16.1 °C 29.8in /  1009.5hPa Calm     95% 0in /  0.0mm 95 W/m2
11:31 62.4 °F /  16.9 °C 61 °F /  16.1 °C 29.8in /  1009.5hPa Calm     95% 0in /  0.0mm 91 W/m2
11:36 62.8 °F /  17.1 °C 61.3 °F /  16.3 °C 29.8in /  1009.5hPa Calm   1mph /  1.6km/h 95% 0in /  0.0mm 116 W/m2
11:42 62.8 °F /  17.1 °C 61.3 °F /  16.3 °C 29.8in /  1009.5hPa Calm   1mph /  1.6km/h 95% 0in /  0.0mm 156 W/m2
11:47 63 °F /  17.2 °C 61.5 °F /  16.4 °C 29.8in /  1009.5hPa Calm   1mph /  1.6km/h 95% 0in /  0.0mm 165 W/m2
11:52 63.1 °F /  17.3 °C 61.3 °F /  16.3 °C 29.8in /  1009.8hPa NW 0.9mph /  1.4km/h 3mph /  4.8km/h 94% 0in /  0.0mm 104 W/m2
11:57 63.1 °F /  17.3 °C 61.3 °F /  16.3 °C 29.8in /  1009.8hPa SW 0.9mph /  1.4km/h 4mph /  6.4km/h 94% 0in /  0.0mm 102 W/m2
12:02 63.3 °F /  17.4 °C 61.5 °F /  16.4 °C 29.8in /  1009.5hPa Calm   1mph /  1.6km/h 94% 0in /  0.0mm 120 W/m2
12:07 63.3 °F /  17.4 °C 61.5 °F /  16.4 °C 29.8in /  1009.5hPa WNW 4mph /  6.4km/h 4mph /  6.4km/h 94% 0in /  0.0mm 146 W/m2
12:12 63.5 °F /  17.5 °C 61.7 °F /  16.5 °C 29.8in /  1009.5hPa WNW 0.9mph /  1.4km/h 3mph /  4.8km/h 94% 0in /  0.0mm 167 W/m2
12:17 63.5 °F /  17.5 °C 61.7 °F /  16.5 °C 29.8in /  1009.5hPa West 0.9mph /  1.4km/h 2mph /  3.2km/h 94% 0in /  0.0mm 162 W/m2
12:22 63.5 °F /  17.5 °C 61.7 °F /  16.5 °C 29.8in /  1009.5hPa WNW 0.9mph /  1.4km/h 3mph /  4.8km/h 94% 0in /  0.0mm 128 W/m2
12:27 63.7 °F /  17.6 °C 61.9 °F /  16.6 °C 29.8in /  1009.5hPa West 2mph /  3.2km/h 3mph /  4.8km/h 94% 0in /  0.0mm 104 W/m2
12:32 63.7 °F /  17.6 °C 61.9 °F /  16.6 °C 29.8in /  1009.5hPa WNW 0.9mph /  1.4km/h 3mph /  4.8km/h 94% 0in /  0.0mm 95 W/m2
12:37 63.9 °F /  17.7 °C 62.1 °F /  16.7 °C 29.8in /  1009.8hPa WNW 2mph /  3.2km/h 2mph /  3.2km/h 94% 0in /  0.0mm 76 W/m2
12:42 63.9 °F /  17.7 °C 62.1 °F /  16.7 °C 29.8in /  1009.8hPa WNW 0.9mph /  1.4km/h 3mph /  4.8km/h 94% 0in /  0.0mm 60 W/m2
12:47 64 °F /  17.8 °C 62.2 °F /  16.8 °C 29.8in /  1009.8hPa West 2mph /  3.2km/h 4mph /  6.4km/h 94% 0in /  0.0mm 39 W/m2
12:52 63.9 °F /  17.7 °C 62.1 °F /  16.7 °C 29.8in /  1009.8hPa West 2.9mph /  4.7km/h 4mph /  6.4km/h 94% 0in /  0.0mm 39 W/m2
12:57 63.9 °F /  17.7 °C 61.9 °F /  16.6 °C 29.8in /  1009.8hPa West 2mph /  3.2km/h 3mph /  4.8km/h 93% 0in /  0.0mm 53 W/m2
13:02 63.7 °F /  17.6 °C 61.7 °F /  16.5 °C 29.8in /  1009.8hPa West 2.9mph /  4.7km/h 4mph /  6.4km/h 93% 0in /  0.0mm 79 W/m2
13:07 63.7 °F /  17.6 °C 61.7 °F /  16.5 °C 29.8in /  1009.8hPa West 6mph /  9.7km/h 9mph /  14.5km/h 93% 0.01in /  0.2mm 79 W/m2
13:12 63.3 °F /  17.4 °C 61.3 °F /  16.3 °C 29.8in /  1009.8hPa WSW 4.9mph /  7.9km/h 7mph /  11.3km/h 93% 0.01in /  0.2mm 93 W/m2
13:17 63.1 °F /  17.3 °C 61.3 °F /  16.3 °C 29.8in /  1009.8hPa NW 2mph /  3.2km/h 5mph /  8km/h 94% 0.02in /  0.5mm 88 W/m2
13:22 63 °F /  17.2 °C 61.2 °F /  16.2 °C 29.8in /  1009.8hPa NNW 4mph /  6.4km/h 8mph /  12.9km/h 94% 0.03in /  0.8mm 77 W/m2
13:27 63 °F /  17.2 °C 61.2 °F /  16.2 °C 29.8in /  1009.8hPa WNW 4mph /  6.4km/h 5mph /  8km/h 94% 0.04in /  1.0mm 63 W/m2
13:32 62.8 °F /  17.1 °C 61 °F /  16.1 °C 29.8in /  1009.8hPa WSW 2.9mph /  4.7km/h 4mph /  6.4km/h 94% 0.06in /  1.5mm 60 W/m2
13:37 62.6 °F /  17 °C 60.8 °F /  16 °C 29.8in /  1009.8hPa NW 4mph /  6.4km/h 6mph /  9.7km/h 94% 0.07in /  1.8mm 76 W/m2
13:42 62.4 °F /  16.9 °C 60.6 °F /  15.9 °C 29.8in /  1009.8hPa West 2mph /  3.2km/h 6mph /  9.7km/h 94% 0.09in /  2.3mm 84 W/m2
13:47 62.2 °F /  16.8 °C 60.4 °F /  15.8 °C 29.8in /  1010.2hPa West 2.9mph /  4.7km/h 8mph /  12.9km/h 94% 0.11in /  2.8mm 97 W/m2
13:52 62.1 °F /  16.7 °C 60.3 °F /  15.7 °C 29.8in /  1010.2hPa West 2.9mph /  4.7km/h 8mph /  12.9km/h 94% 0.13in /  3.3mm 76 W/m2
13:57 62.1 °F /  16.7 °C 60.3 °F /  15.7 °C 29.8in /  1009.8hPa WNW 2.9mph /  4.7km/h 5mph /  8km/h 94% 0.17in /  4.3mm 83 W/m2
14:02 62.1 °F /  16.7 °C 60.6 °F /  15.9 °C 29.8in /  1009.8hPa West 4mph /  6.4km/h 8mph /  12.9km/h 95% 0.18in /  4.6mm 91 W/m2
14:07 61.9 °F /  16.6 °C 60.4 °F /  15.8 °C 29.8in /  1010.2hPa West 4mph /  6.4km/h 8mph /  12.9km/h 95% 0.19in /  4.8mm 91 W/m2
14:12 61.9 °F /  16.6 °C 60.4 °F /  15.8 °C 29.8in /  1010.2hPa WNW 2.9mph /  4.7km/h 4mph /  6.4km/h 95% 0.21in /  5.3mm 86 W/m2
14:17 61.7 °F /  16.5 °C 60.3 °F /  15.7 °C 29.8in /  1010.2hPa West 6mph /  9.7km/h 10mph /  16.1km/h 95% 0.21in /  5.3mm 76 W/m2
14:22 61.5 °F /  16.4 °C 60.1 °F /  15.6 °C 29.8in /  1010.2hPa WNW 4mph /  6.4km/h 9mph /  14.5km/h 95% 0.21in /  5.3mm 81 W/m2
14:27 61.3 °F /  16.3 °C 59.9 °F /  15.5 °C 29.8in /  1010.2hPa West 4mph /  6.4km/h 7mph /  11.3km/h 95% 0.22in /  5.6mm 77 W/m2
14:32 61.3 °F /  16.3 °C 59.9 °F /  15.5 °C 29.8in /  1010.2hPa West 4mph /  6.4km/h 5mph /  8km/h 95% 0.23in /  5.8mm 74 W/m2
14:37 61.3 °F /  16.3 °C 59.9 °F /  15.5 °C 29.8in /  1010.2hPa WNW 8.1mph /  13km/h 9mph /  14.5km/h 95% 0.23in /  5.8mm 72 W/m2
14:42 61.3 °F /  16.3 °C 59.9 °F /  15.5 °C 29.8in /  1010.2hPa WNW 4.9mph /  7.9km/h 7mph /  11.3km/h 95% 0.22in /  5.6mm 74 W/m2
14:47 61.2 °F /  16.2 °C 59.7 °F /  15.4 °C 29.8in /  1010.2hPa WSW 2.9mph /  4.7km/h 5mph /  8km/h 95% 0.22in /  5.6mm 70 W/m2
14:52 61.2 °F /  16.2 °C 59.7 °F /  15.4 °C 29.8in /  1010.2hPa NW 0.9mph /  1.4km/h 4mph /  6.4km/h 95% 0.21in /  5.3mm 60 W/m2
14:57 61.2 °F /  16.2 °C 59.7 °F /  15.4 °C 29.8in /  1010.2hPa West 2mph /  3.2km/h 6mph /  9.7km/h 95% 0.2in /  5.1mm 54 W/m2
15:02 61 °F /  16.1 °C 59.5 °F /  15.3 °C 29.8in /  1010.2hPa West 2mph /  3.2km/h 3mph /  4.8km/h 95% 0.2in /  5.1mm 58 W/m2
15:07 61.2 °F /  16.2 °C 59.7 °F /  15.4 °C 29.8in /  1010.2hPa WNW 2mph /  3.2km/h 4mph /  6.4km/h 95% 0.2in /  5.1mm 60 W/m2
15:12 61.2 °F /  16.2 °C 59.7 °F /  15.4 °C 29.8in /  1010.2hPa West 4mph /  6.4km/h 6mph /  9.7km/h 95% 0.19in /  4.8mm 72 W/m2
15:17 61 °F /  16.1 °C 59.5 °F /  15.3 °C 29.8in /  1010.2hPa Calm   6mph /  9.7km/h 95% 0.19in /  4.8mm 67 W/m2
15:22 61 °F /  16.1 °C 59.5 °F /  15.3 °C 29.8in /  1010.2hPa West 2mph /  3.2km/h 7mph /  11.3km/h 95% 0.2in /  5.1mm 51 W/m2
15:27 61 °F /  16.1 °C 59.5 °F /  15.3 °C 29.8in /  1010.2hPa WNW 2.9mph /  4.7km/h 5mph /  8km/h 95% 0.2in /  5.1mm 46 W/m2
15:32 61 °F /  16.1 °C 59.5 °F /  15.3 °C 29.8in /  1010.2hPa WNW 6.9mph /  11.1km/h 7mph /  11.3km/h 95% 0.2in /  5.1mm 44 W/m2
15:37 61 °F /  16.1 °C 59.5 °F /  15.3 °C 29.8in /  1010.2hPa West 2.9mph /  4.7km/h 9mph /  14.5km/h 95% 0.2in /  5.1mm 47 W/m2
15:42 60.8 °F /  16 °C 59.4 °F /  15.2 °C 29.8in /  1010.2hPa WNW 2mph /  3.2km/h 7mph /  11.3km/h 95% 0.21in /  5.3mm 46 W/m2
15:47 60.8 °F /  16 °C 59.4 °F /  15.2 °C 29.8in /  1010.2hPa West 2.9mph /  4.7km/h 10mph /  16.1km/h 95% 0.21in /  5.3mm 53 W/m2
15:52 60.8 °F /  16 °C 59.4 °F /  15.2 °C 29.8in /  1010.2hPa West 2mph /  3.2km/h 4mph /  6.4km/h 95% 0.23in /  5.8mm 65 W/m2
15:57 60.8 °F /  16 °C 59.4 °F /  15.2 °C 29.8in /  1010.2hPa West 2mph /  3.2km/h 8mph /  12.9km/h 95% 0.24in /  6.1mm 69 W/m2
16:02 61 °F /  16.1 °C 59.5 °F /  15.3 °C 29.8in /  1010.2hPa West 6mph /  9.7km/h 10mph /  16.1km/h 95% 0.26in /  6.6mm 70 W/m2
16:07 61 °F /  16.1 °C 59.5 °F /  15.3 °C 29.8in /  1010.2hPa WNW 8.1mph /  13km/h 8mph /  12.9km/h 95% 0.28in /  7.1mm 63 W/m2
16:12 61 °F /  16.1 °C 59.9 °F /  15.5 °C 29.8in /  1010.2hPa West 0.9mph /  1.4km/h 9mph /  14.5km/h 96% 0.32in /  8.1mm 53 W/m2
16:17 61 °F /  16.1 °C 59.9 °F /  15.5 °C 29.8in /  1010.2hPa WNW 0.9mph /  1.4km/h 6mph /  9.7km/h 96% 0.33in /  8.4mm 46 W/m2
16:22 61 °F /  16.1 °C 59.9 °F /  15.5 °C 29.8in /  1010.2hPa WSW 4.9mph /  7.9km/h 10mph /  16.1km/h 96% 0.34in /  8.6mm 42 W/m2
16:27 61 °F /  16.1 °C 59.9 °F /  15.5 °C 29.8in /  1010.2hPa WNW 6.9mph /  11.1km/h 9mph /  14.5km/h 96% 0.38in /  9.7mm 49 W/m2
16:32 61 °F /  16.1 °C 59.9 °F /  15.5 °C 29.8in /  1010.2hPa WNW 4mph /  6.4km/h 9mph /  14.5km/h 96% 0.41in /  10.4mm 40 W/m2
16:37 61 °F /  16.1 °C 59.9 °F /  15.5 °C 29.8in /  1010.2hPa WNW 6.9mph /  11.1km/h 8mph /  12.9km/h 96% 0.41in /  10.4mm 37 W/m2
16:42 61 °F /  16.1 °C 59.9 °F /  15.5 °C 29.8in /  1010.2hPa WNW 4.9mph /  7.9km/h 7mph /  11.3km/h 96% 0.42in /  10.7mm 37 W/m2
16:47 61 °F /  16.1 °C 59.9 °F /  15.5 °C 29.8in /  1010.2hPa WNW 2mph /  3.2km/h 5mph /  8km/h 96% 0.46in /  11.7mm 30 W/m2
16:52 61 °F /  16.1 °C 59.9 °F /  15.5 °C 29.8in /  1010.5hPa WNW 4mph /  6.4km/h 9mph /  14.5km/h 96% 0.46in /  11.7mm 23 W/m2
16:57 60.8 °F /  16 °C 59.7 °F /  15.4 °C 29.8in /  1010.5hPa West 4mph /  6.4km/h 4mph /  6.4km/h 96% 0.45in /  11.4mm 21 W/m2
17:02 60.8 °F /  16 °C 59.7 °F /  15.4 °C 29.8in /  1010.5hPa West 8.1mph /  13km/h 9mph /  14.5km/h 96% 0.44in /  11.2mm 21 W/m2
17:07 60.8 °F /  16 °C 59.7 °F /  15.4 °C 29.8in /  1010.5hPa WNW 0.9mph /  1.4km/h 4mph /  6.4km/h 96% 0.43in /  10.9mm 25 W/m2
17:12 60.8 °F /  16 °C 59.7 °F /  15.4 °C 29.8in /  1010.2hPa West 2mph /  3.2km/h 5mph /  8km/h 96% 0.39in /  9.9mm 23 W/m2
17:17 60.6 °F /  15.9 °C 59.5 °F /  15.3 °C 29.8in /  1010.2hPa West 4mph /  6.4km/h 7mph /  11.3km/h 96% 0.39in /  9.9mm 30 W/m2
17:22 60.6 °F /  15.9 °C 59.5 °F /  15.3 °C 29.8in /  1010.2hPa WSW 4mph /  6.4km/h 11mph /  17.7km/h 96% 0.38in /  9.7mm 30 W/m2
17:27 60.6 °F /  15.9 °C 59.5 °F /  15.3 °C 29.8in /  1010.2hPa West 4mph /  6.4km/h 8mph /  12.9km/h 96% 0.33in /  8.4mm 26 W/m2
17:32 60.4 °F /  15.8 °C 59.4 °F /  15.2 °C 29.8in /  1010.2hPa SW 4mph /  6.4km/h 11mph /  17.7km/h 96% 0.3in /  7.6mm 26 W/m2
17:37 60.4 °F /  15.8 °C 59.4 °F /  15.2 °C 29.8in /  1010.2hPa West 6mph /  9.7km/h 8mph /  12.9km/h 96% 0.3in /  7.6mm 32 W/m2
17:42 60.4 °F /  15.8 °C 59.4 °F /  15.2 °C 29.8in /  1010.2hPa WNW 6mph /  9.7km/h 10mph /  16.1km/h 96% 0.29in /  7.4mm 19 W/m2
17:47 60.4 °F /  15.8 °C 59.4 °F /  15.2 °C 29.8in /  1010.2hPa WNW 4mph /  6.4km/h 9mph /  14.5km/h 96% 0.26in /  6.6mm 30 W/m2
17:52 60.4 °F /  15.8 °C 59.4 °F /  15.2 °C 29.8in /  1010.5hPa WNW 0.9mph /  1.4km/h 4mph /  6.4km/h 96% 0.24in /  6.1mm 30 W/m2
17:57 60.4 °F /  15.8 °C 59.4 °F /  15.2 °C 29.8in /  1010.5hPa West 4mph /  6.4km/h 7mph /  11.3km/h 96% 0.23in /  5.8mm 26 W/m2
18:02 60.3 °F /  15.7 °C 59.2 °F /  15.1 °C 29.8in /  1010.5hPa West 4mph /  6.4km/h 8mph /  12.9km/h 96% 0.21in /  5.3mm 21 W/m2
18:07 60.3 °F /  15.7 °C 59.2 °F /  15.1 °C 29.8in /  1010.5hPa NW 4.9mph /  7.9km/h 6mph /  9.7km/h 96% 0.21in /  5.3mm 18 W/m2
18:12 60.3 °F /  15.7 °C 59.2 °F /  15.1 °C 29.8in /  1010.5hPa West 0.9mph /  1.4km/h 8mph /  12.9km/h 96% 0.2in /  5.1mm 19 W/m2
18:17 60.3 °F /  15.7 °C 59.2 °F /  15.1 °C 29.8in /  1010.5hPa NW 2.9mph /  4.7km/h 6mph /  9.7km/h 96% 0.19in /  4.8mm 18 W/m2
18:22 60.3 °F /  15.7 °C 59.2 °F /  15.1 °C 29.8in /  1010.5hPa West 0.9mph /  1.4km/h 7mph /  11.3km/h 96% 0.21in /  5.3mm 19 W/m2
18:27 60.3 °F /  15.7 °C 59.2 °F /  15.1 °C 29.8in /  1010.5hPa West 2.9mph /  4.7km/h 3mph /  4.8km/h 96% 0.22in /  5.6mm 14 W/m2
18:32 60.1 °F /  15.6 °C 59 °F /  15 °C 29.8in /  1010.5hPa West 2.9mph /  4.7km/h 4mph /  6.4km/h 96% 0.23in /  5.8mm 14 W/m2
18:37 60.1 °F /  15.6 °C 59 °F /  15 °C 29.8in /  1010.5hPa West 2.9mph /  4.7km/h 4mph /  6.4km/h 96% 0.22in /  5.6mm 14 W/m2
18:42 60.1 °F /  15.6 °C 59 °F /  15 °C 29.8in /  1010.5hPa West 2.9mph /  4.7km/h 4mph /  6.4km/h 96% 0.22in /  5.6mm 18 W/m2
18:47 60.1 °F /  15.6 °C 59 °F /  15 °C 29.8in /  1010.5hPa WSW 2mph /  3.2km/h 8mph /  12.9km/h 96% 0.22in /  5.6mm 21 W/m2
18:52 59.9 °F /  15.5 °C 58.8 °F /  14.9 °C 29.8in /  1010.5hPa West 4mph /  6.4km/h 7mph /  11.3km/h 96% 0.22in /  5.6mm 21 W/m2
18:57 59.9 °F /  15.5 °C 58.8 °F /  14.9 °C 29.8in /  1010.5hPa WNW 2.9mph /  4.7km/h 8mph /  12.9km/h 96% 0.23in /  5.8mm 25 W/m2
19:02 59.9 °F /  15.5 °C 58.8 °F /  14.9 °C 29.8in /  1010.5hPa WSW 4.9mph /  7.9km/h 6mph /  9.7km/h 96% 0.23in /  5.8mm 23 W/m2
19:07 59.9 °F /  15.5 °C 58.8 °F /  14.9 °C 29.8in /  1010.5hPa WSW 2mph /  3.2km/h 6mph /  9.7km/h 96% 0.22in /  5.6mm 21 W/m2
19:12 59.9 °F /  15.5 °C 58.8 °F /  14.9 °C 29.8in /  1010.5hPa WNW 2.9mph /  4.7km/h 6mph /  9.7km/h 96% 0.23in /  5.8mm 19 W/m2
19:17 59.7 °F /  15.4 °C 58.6 °F /  14.8 °C 29.8in /  1010.5hPa WNW 4mph /  6.4km/h 5mph /  8km/h 96% 0.21in /  5.3mm 18 W/m2
19:22 59.7 °F /  15.4 °C 58.6 °F /  14.8 °C 29.8in /  1010.5hPa West 6mph /  9.7km/h 7mph /  11.3km/h 96% 0.19in /  4.8mm 16 W/m2
19:27 59.7 °F /  15.4 °C 58.6 °F /  14.8 °C 29.8in /  1010.5hPa WSW 2mph /  3.2km/h 4mph /  6.4km/h 96% 0.18in /  4.6mm 16 W/m2
19:32 59.7 °F /  15.4 °C 58.6 °F /  14.8 °C 29.8in /  1010.5hPa WSW 4mph /  6.4km/h 8mph /  12.9km/h 96% 0.17in /  4.3mm 16 W/m2
19:37 59.7 °F /  15.4 °C 58.6 °F /  14.8 °C 29.8in /  1010.5hPa WNW 2.9mph /  4.7km/h 6mph /  9.7km/h 96% 0.16in /  4.1mm 18 W/m2
19:42 59.7 °F /  15.4 °C 58.6 °F /  14.8 °C 29.8in /  1010.5hPa West 2.9mph /  4.7km/h 7mph /  11.3km/h 96% 0.15in /  3.8mm 19 W/m2
19:47 59.7 °F /  15.4 °C 58.6 °F /  14.8 °C 29.8in /  1010.5hPa West 4mph /  6.4km/h 9mph /  14.5km/h 96% 0.15in /  3.8mm 23 W/m2
19:52 59.7 °F /  15.4 °C 58.6 °F /  14.8 °C 29.8in /  1010.2hPa WNW 6.9mph /  11.1km/h 7mph /  11.3km/h 96% 0.15in /  3.8mm 21 W/m2
19:57 59.7 °F /  15.4 °C 58.6 °F /  14.8 °C 29.8in /  1010.2hPa WSW 4mph /  6.4km/h 9mph /  14.5km/h 96% 0.16in /  4.1mm 18 W/m2
20:02 59.7 °F /  15.4 °C 58.6 °F /  14.8 °C 29.8in /  1010.2hPa WSW 2.9mph /  4.7km/h 9mph /  14.5km/h 96% 0.15in /  3.8mm 19 W/m2
20:07 59.5 °F /  15.3 °C 58.5 °F /  14.7 °C 29.8in /  1010.2hPa WSW 2.9mph /  4.7km/h 10mph /  16.1km/h 96% 0.16in /  4.1mm 19 W/m2
20:12 59.5 °F /  15.3 °C 58.5 °F /  14.7 °C 29.8in /  1010.2hPa WNW 4.9mph /  7.9km/h 7mph /  11.3km/h 96% 0.16in /  4.1mm 14 W/m2
20:17 59.5 °F /  15.3 °C 58.5 °F /  14.7 °C 29.8in /  1010.2hPa WNW 2.9mph /  4.7km/h 6mph /  9.7km/h 96% 0.17in /  4.3mm 12 W/m2
20:22 59.5 °F /  15.3 °C 58.5 °F /  14.7 °C 29.8in /  1010.2hPa SW 6mph /  9.7km/h 8mph /  12.9km/h 96% 0.17in /  4.3mm 9 W/m2
20:28 59.5 °F /  15.3 °C 58.5 °F /  14.7 °C 29.8in /  1010.2hPa West 4mph /  6.4km/h 7mph /  11.3km/h 96% 0.17in /  4.3mm 7 W/m2
20:33 59.5 °F /  15.3 °C 58.5 °F /  14.7 °C 29.8in /  1010.2hPa WSW 4.9mph /  7.9km/h 7mph /  11.3km/h 96% 0.17in /  4.3mm 7 W/m2
20:38 59.5 °F /  15.3 °C 58.5 °F /  14.7 °C 29.8in /  1010.2hPa West 4mph /  6.4km/h 8mph /  12.9km/h 96% 0.17in /  4.3mm 5 W/m2
20:43 59.5 °F /  15.3 °C 58.5 °F /  14.7 °C 29.8in /  1009.8hPa West 2.9mph /  4.7km/h 8mph /  12.9km/h 96% 0.18in /  4.6mm 5 W/m2
20:48 59.5 °F /  15.3 °C 58.5 °F /  14.7 °C 29.8in /  1009.8hPa WSW 4.9mph /  7.9km/h 8mph /  12.9km/h 96% 0.2in /  5.1mm 5 W/m2
20:53 59.5 °F /  15.3 °C 58.5 °F /  14.7 °C 29.8in /  1009.8hPa WNW 12.1mph /  19.5km/h 12mph /  19.3km/h 96% 0.19in /  4.8mm 5 W/m2
20:58 59.5 °F /  15.3 °C 58.5 °F /  14.7 °C 29.8in /  1009.5hPa WSW 8.9mph /  14.3km/h 9mph /  14.5km/h 96% 0.18in /  4.6mm 0 W/m2
21:03 59.4 °F /  15.2 °C 58.3 °F /  14.6 °C 29.8in /  1009.5hPa WNW 6.9mph /  11.1km/h 9mph /  14.5km/h 96% 0.18in /  4.6mm 0 W/m2
21:08 59.4 °F /  15.2 °C 58.3 °F /  14.6 °C 29.8in /  1009.5hPa WSW 6.9mph /  11.1km/h 12mph /  19.3km/h 96% 0.17in /  4.3mm 0 W/m2
21:13 59.4 °F /  15.2 °C 58.3 °F /  14.6 °C 29.8in /  1009.8hPa SSE 6mph /  9.7km/h 10mph /  16.1km/h 96% 0.17in /  4.3mm 0 W/m2
Juneau County Weather
Compliments of Weather Underground - 4 mb